Liberty of The Seas — C6VQ8 — position and weather

sailwx.info

Track history (hours):
 
Tides and Currents Weather Stations Pressure Air Temp Water Temp Dewpoint Dewpoint Depression Visibility Wind Speed Wind Dir Waves Ship Positions

Liberty of The Seas

Last reported at 2019-Apr-24 09:00 UTC. Time now 2019-Apr-24 22:28 UTC.
Position N 19°42' W 083°06'.

Type: Passenger vessel. MMSI: 309436000.

Wind from 060 at 21 knots

Barometer 1013.0 mb
Air temperature 26.0 ° C
Visibility: greater than 10.8 NM
Dewpoint 24.6 ° C

Date/timePositionNaut miles runAvg speedWind from/ knotsBaromVisibWave heightAir tempDewpointWater temp
2019-Apr-24 09:00N 19°42' W 083°06'18120.1 060 / 211013.010.8 26.024.6
2019-Apr-24 00:00N 20°30' W 086°12'4025.1 080 / 241014.010.8 26.023.1
2019-Apr-23 22:23N 20°37' W 086°54'719.1
2019-Apr-23 22:01N 20°31' W 086°59'3 1.6
2019-Apr-23 20:25N 20°29' W 086°59'0 0.0
2019-Apr-23 17:25N 20°29' W 086°59'0 0.0
2019-Apr-23 11:53N 20°29' W 086°59'1 1.9
2019-Apr-23 11:31N 20°30' W 086°59'713.3
2019-Apr-23 11:00N 20°36' W 086°56'20017.7
2019-Apr-22 23:42N 23°38' W 088°24'29820.2
2019-Apr-22 09:00N 27°18' W 092°06'8620.0 130 / 191018.010.8 21.021.0
2019-Apr-22 04:42N 28°23' W 093°10'518.7
2019-Apr-22 04:27N 28°25' W 093°14'918.7
2019-Apr-22 03:58N 28°30' W 093°22'1318.6
2019-Apr-22 03:16N 28°38' W 093°35'518.5
2019-Apr-22 03:00N 28°41' W 093°39'1418.1
2019-Apr-22 02:15N 28°49' W 093°52'1018.2
2019-Apr-22 01:40N 28°55' W 094°01'316.9
2019-Apr-22 01:28N 28°57' W 094°05'815.6
2019-Apr-22 00:56N 29°02' W 094°12'715.5
2019-Apr-22 00:30N 29°05' W 094°19'815.4
2019-Apr-21 23:57N 29°10' W 094°27'815.5
2019-Apr-21 23:27N 29°15' W 094°34'511.9
2019-Apr-21 23:00N 29°19' W 094°38'714.1
2019-Apr-21 22:31N 29°21' W 094°46'3 3.5
2019-Apr-21 21:42N 29°19' W 094°48'0 0.0
2019-Apr-21 21:09N 29°19' W 094°48'0 0.0
2019-Apr-21 20:36N 29°19' W 094°48'0 0.0
2019-Apr-21 20:03N 29°19' W 094°48'0 0.0
2019-Apr-21 13:39N 29°19' W 094°48'0 0.0
2019-Apr-21 13:30N 29°19' W 094°48'0 0.0
2019-Apr-21 13:00N 29°19' W 094°48'0 0.0
2019-Apr-21 12:27N 29°19' W 094°48'0 0.0
2019-Apr-21 12:00N 29°19' W 094°48'0 0.0
2019-Apr-21 11:30N 29°19' W 094°48'0 0.0
2019-Apr-21 11:00N 29°19' W 094°48'0 0.0
2019-Apr-21 10:30N 29°19' W 094°48'0 0.1
2019-Apr-21 10:00N 29°19' W 094°48'1 2.6
2019-Apr-21 09:30N 29°19' W 094°47'510.5
2019-Apr-21 09:00N 29°20' W 094°41'713.3
2019-Apr-21 08:30N 29°17' W 094°34'816.5
2019-Apr-21 08:01N 29°12' W 094°27'916.9
2019-Apr-21 07:29N 29°06' W 094°19'174353.1
2019-Apr-21 07:00N 28°54' W 091°00'16737615.3 200 / 221017.010.8 19.017.4
2019-Apr-21 06:59N 29°02' W 094°11'918.6
2019-Apr-21 06:30N 28°57' W 094°02'1020.2
2019-Apr-21 06:00N 28°51' W 093°53'1221.2
2019-Apr-21 05:27N 28°45' W 093°42'1021.5
2019-Apr-21 05:00N 28°39' W 093°33'1121.6
2019-Apr-21 04:30N 28°32' W 093°23'39821.5
2019-Apr-20 10:00N 23°48' W 088°12'20318.0 220 / 261016.010.8 21.019.4
2019-Apr-19 22:45N 20°39' W 086°54'522.6
2019-Apr-19 22:31N 20°34' W 086°57'5 9.2
2019-Apr-19 21:55N 20°29' W 086°59'0 0.0
2019-Apr-19 21:28N 20°29' W 086°59'0 0.0
2019-Apr-19 20:58N 20°29' W 086°59'0 0.0
2019-Apr-19 20:28N 20°29' W 086°59'0 0.0
2019-Apr-19 19:58N 20°29' W 086°59'0 0.0
2019-Apr-19 19:28N 20°29' W 086°59'0 0.0
2019-Apr-19 18:58N 20°29' W 086°59'0 0.0
2019-Apr-19 18:28N 20°29' W 086°59'0 0.0
2019-Apr-19 17:58N 20°29' W 086°59'0 0.0
2019-Apr-19 17:28N 20°29' W 086°59'0 0.0
2019-Apr-19 16:58N 20°29' W 086°59'0 0.0
2019-Apr-19 16:28N 20°29' W 086°59'0 0.0
2019-Apr-19 15:52N 20°29' W 086°59'0 0.0
2019-Apr-19 15:25N 20°29' W 086°59'0 0.0
2019-Apr-19 14:55N 20°29' W 086°59'0 0.0
2019-Apr-19 14:28N 20°29' W 086°59'0 0.0
2019-Apr-19 13:58N 20°29' W 086°59'0 0.0
2019-Apr-19 13:28N 20°29' W 086°59'0 0.0
2019-Apr-19 12:55N 20°29' W 086°59'0 0.0
2019-Apr-19 12:28N 20°29' W 086°59'0 0.0
2019-Apr-19 12:00N 20°29' W 086°59'1 2.1
2019-Apr-19 11:30N 20°29' W 086°60'3 6.8
2019-Apr-19 11:00N 20°26' W 087°02'4 7.5
2019-Apr-19 10:30N 20°23' W 087°04'23 9.3
2019-Apr-19 08:00N 20°00' W 087°00'3010.0 140 / 201010.010.8 26.024.6
2019-Apr-19 05:00N 19°30' W 087°00'103 4.9 130 / 261010.010.8 27.027.0
2019-Apr-18 08:00N 17°48' W 087°18'62 2.6 110 / 271011.010.8 26.024.6
2019-Apr-17 08:00N 17°06' W 086°30'5413.5 090 / 191015.010.8 26.024.6
2019-Apr-17 04:00N 18°00' W 086°30'23513.0 080 / 161015.010.8 26.0
2019-Apr-16 10:00N 21°54' W 086°48'12715.9 070 / 271017.010.8 25.025.0
2019-Apr-16 02:00N 23°30' W 088°18'16026.7 070 / 301012.010.8 24.022.5
2019-Apr-15 20:00N 25°54' W 089°36'13813.8 070 / 201019.010.8 24.015.826.0
2019-Apr-15 10:00N 27°06' W 091°48'9616.0 080 / 181018.010.8 19.017.4
2019-Apr-15 04:00N 28°18' W 093°00'10417.9 320 / 41016.010.8 20.018.4
2019-Apr-14 22:11N 29°18' W 094°37'613.0
2019-Apr-14 21:41N 29°21' W 094°44'212.1
2019-Apr-14 21:30N 29°20' W 094°46'2 4.2
2019-Apr-14 21:00N 29°19' W 094°48'0 0.0
2019-Apr-14 20:28N 29°19' W 094°48'0 0.0
2019-Apr-14 19:58N 29°19' W 094°48'0 0.0
2019-Apr-14 19:28N 29°19' W 094°48'0 0.0
2019-Apr-14 18:52N 29°19' W 094°48'0 0.0
2019-Apr-14 18:10N 29°19' W 094°48'0 0.0
2019-Apr-14 17:40N 29°19' W 094°48'0 0.0
2019-Apr-14 16:46N 29°19' W 094°48'0 0.0
2019-Apr-14 16:07N 29°19' W 094°48'0 0.0
2019-Apr-14 15:55N 29°19' W 094°48'0 0.0
2019-Apr-14 15:16N 29°19' W 094°48'0 0.0
2019-Apr-14 14:55N 29°19' W 094°48'0 0.0
2019-Apr-14 14:28N 29°19' W 094°48'0 0.0
2019-Apr-14 13:58N 29°19' W 094°48'0 0.0
2019-Apr-14 13:28N 29°19' W 094°48'0 0.0
2019-Apr-14 12:58N 29°19' W 094°48'0 0.0
2019-Apr-14 12:28N 29°19' W 094°48'0 0.0
2019-Apr-14 11:58N 29°19' W 094°48'0 0.0
2019-Apr-14 11:30N 29°19' W 094°48'1 2.7
2019-Apr-14 11:00N 29°19' W 094°47'2 4.0
2019-Apr-14 10:31N 29°21' W 094°45'612.3
2019-Apr-14 10:00N 29°19' W 094°38'5 9.8
2019-Apr-14 09:30N 29°16' W 094°33'  
Track history (hours):
 
Tides and Currents Weather Stations Pressure Air Temp Water Temp Dewpoint Dewpoint Depression Visibility Wind Speed Wind Dir Waves Ship Positions

Liberty of The Seas

Last reported at 2019-Apr-24 09:00 UTC. Time now 2019-Apr-24 22:28 UTC.
Position N 19°42' W 083°06'.

Type: Passenger vessel. MMSI: 309436000.

Wind from 060 at 21 knots

Barometer 1013.0 mb
Air temperature 26.0 ° C
Visibility: greater than 10.8 NM
Dewpoint 24.6 ° C

Date/timePositionNaut miles runAvg speedWind from/ knotsBaromVisibWave heightAir tempDewpointWater temp
2019-Apr-24 09:00N 19°42' W 083°06'18120.1 060 / 211013.010.8 26.024.6
2019-Apr-24 00:00N 20°30' W 086°12'4025.1 080 / 241014.010.8 26.023.1
2019-Apr-23 22:23N 20°37' W 086°54'719.1
2019-Apr-23 22:01N 20°31' W 086°59'3 1.6
2019-Apr-23 20:25N 20°29' W 086°59'0 0.0
2019-Apr-23 17:25N 20°29' W 086°59'0 0.0
2019-Apr-23 11:53N 20°29' W 086°59'1 1.9
2019-Apr-23 11:31N 20°30' W 086°59'713.3
2019-Apr-23 11:00N 20°36' W 086°56'20017.7
2019-Apr-22 23:42N 23°38' W 088°24'29820.2
2019-Apr-22 09:00N 27°18' W 092°06'8620.0 130 / 191018.010.8 21.021.0
2019-Apr-22 04:42N 28°23' W 093°10'518.7
2019-Apr-22 04:27N 28°25' W 093°14'918.7
2019-Apr-22 03:58N 28°30' W 093°22'1318.6
2019-Apr-22 03:16N 28°38' W 093°35'518.5
2019-Apr-22 03:00N 28°41' W 093°39'1418.1
2019-Apr-22 02:15N 28°49' W 093°52'1018.2
2019-Apr-22 01:40N 28°55' W 094°01'316.9
2019-Apr-22 01:28N 28°57' W 094°05'815.6
2019-Apr-22 00:56N 29°02' W 094°12'715.5
2019-Apr-22 00:30N 29°05' W 094°19'815.4
2019-Apr-21 23:57N 29°10' W 094°27'815.5
2019-Apr-21 23:27N 29°15' W 094°34'511.9
2019-Apr-21 23:00N 29°19' W 094°38'714.1
2019-Apr-21 22:31N 29°21' W 094°46'3 3.5
2019-Apr-21 21:42N 29°19' W 094°48'0 0.0
2019-Apr-21 21:09N 29°19' W 094°48'0 0.0
2019-Apr-21 20:36N 29°19' W 094°48'0 0.0
2019-Apr-21 20:03N 29°19' W 094°48'0 0.0
2019-Apr-21 13:39N 29°19' W 094°48'0 0.0
2019-Apr-21 13:30N 29°19' W 094°48'0 0.0
2019-Apr-21 13:00N 29°19' W 094°48'0 0.0
2019-Apr-21 12:27N 29°19' W 094°48'0 0.0
2019-Apr-21 12:00N 29°19' W 094°48'0 0.0
2019-Apr-21 11:30N 29°19' W 094°48'0 0.0
2019-Apr-21 11:00N 29°19' W 094°48'0 0.0
2019-Apr-21 10:30N 29°19' W 094°48'0 0.1
2019-Apr-21 10:00N 29°19' W 094°48'1 2.6
2019-Apr-21 09:30N 29°19' W 094°47'510.5
2019-Apr-21 09:00N 29°20' W 094°41'713.3
2019-Apr-21 08:30N 29°17' W 094°34'816.5
2019-Apr-21 08:01N 29°12' W 094°27'916.9
2019-Apr-21 07:29N 29°06' W 094°19'174353.1
2019-Apr-21 07:00N 28°54' W 091°00'16737615.3 200 / 221017.010.8 19.017.4
2019-Apr-21 06:59N 29°02' W 094°11'918.6
2019-Apr-21 06:30N 28°57' W 094°02'1020.2
2019-Apr-21 06:00N 28°51' W 093°53'1221.2
2019-Apr-21 05:27N 28°45' W 093°42'1021.5
2019-Apr-21 05:00N 28°39' W 093°33'1121.6
2019-Apr-21 04:30N 28°32' W 093°23'39821.5
2019-Apr-20 10:00N 23°48' W 088°12'20318.0 220 / 261016.010.8 21.019.4
2019-Apr-19 22:45N 20°39' W 086°54'522.6
2019-Apr-19 22:31N 20°34' W 086°57'5 9.2
2019-Apr-19 21:55N 20°29' W 086°59'0 0.0
2019-Apr-19 21:28N 20°29' W 086°59'0 0.0
2019-Apr-19 20:58N 20°29' W 086°59'0 0.0
2019-Apr-19 20:28N 20°29' W 086°59'0 0.0
2019-Apr-19 19:58N 20°29' W 086°59'0 0.0
2019-Apr-19 19:28N 20°29' W 086°59'0 0.0
2019-Apr-19 18:58N 20°29' W 086°59'0 0.0
2019-Apr-19 18:28N 20°29' W 086°59'0 0.0
2019-Apr-19 17:58N 20°29' W 086°59'0 0.0
2019-Apr-19 17:28N 20°29' W 086°59'0 0.0
2019-Apr-19 16:58N 20°29' W 086°59'0 0.0
2019-Apr-19 16:28N 20°29' W 086°59'0 0.0
2019-Apr-19 15:52N 20°29' W 086°59'0 0.0
2019-Apr-19 15:25N 20°29' W 086°59'0 0.0
2019-Apr-19 14:55N 20°29' W 086°59'0 0.0
2019-Apr-19 14:28N 20°29' W 086°59'0 0.0
2019-Apr-19 13:58N 20°29' W 086°59'0 0.0
2019-Apr-19 13:28N 20°29' W 086°59'0 0.0
2019-Apr-19 12:55N 20°29' W 086°59'0 0.0
2019-Apr-19 12:28N 20°29' W 086°59'0 0.0
2019-Apr-19 12:00N 20°29' W 086°59'1 2.1
2019-Apr-19 11:30N 20°29' W 086°60'3 6.8
2019-Apr-19 11:00N 20°26' W 087°02'4 7.5
2019-Apr-19 10:30N 20°23' W 087°04'23 9.3
2019-Apr-19 08:00N 20°00' W 087°00'3010.0 140 / 201010.010.8 26.024.6
2019-Apr-19 05:00N 19°30' W 087°00'103 4.9 130 / 261010.010.8 27.027.0
2019-Apr-18 08:00N 17°48' W 087°18'62 2.6 110 / 271011.010.8 26.024.6
2019-Apr-17 08:00N 17°06' W 086°30'5413.5 090 / 191015.010.8 26.024.6
2019-Apr-17 04:00N 18°00' W 086°30'23513.0 080 / 161015.010.8 26.0
2019-Apr-16 10:00N 21°54' W 086°48'12715.9 070 / 271017.010.8 25.025.0
2019-Apr-16 02:00N 23°30' W 088°18'16026.7 070 / 301012.010.8 24.022.5
2019-Apr-15 20:00N 25°54' W 089°36'13813.8 070 / 201019.010.8 24.015.826.0
2019-Apr-15 10:00N 27°06' W 091°48'9616.0 080 / 181018.010.8 19.017.4
2019-Apr-15 04:00N 28°18' W 093°00'10417.9 320 / 41016.010.8 20.018.4
2019-Apr-14 22:11N 29°18' W 094°37'613.0
2019-Apr-14 21:41N 29°21' W 094°44'212.1
2019-Apr-14 21:30N 29°20' W 094°46'2 4.2
2019-Apr-14 21:00N 29°19' W 094°48'0 0.0
2019-Apr-14 20:28N 29°19' W 094°48'0 0.0
2019-Apr-14 19:58N 29°19' W 094°48'0 0.0
2019-Apr-14 19:28N 29°19' W 094°48'0 0.0
2019-Apr-14 18:52N 29°19' W 094°48'0 0.0
2019-Apr-14 18:10N 29°19' W 094°48'0 0.0
2019-Apr-14 17:40N 29°19' W 094°48'0 0.0
2019-Apr-14 16:46N 29°19' W 094°48'0 0.0
2019-Apr-14 16:07N 29°19' W 094°48'0 0.0
2019-Apr-14 15:55N 29°19' W 094°48'0 0.0
2019-Apr-14 15:16N 29°19' W 094°48'0 0.0
2019-Apr-14 14:55N 29°19' W 094°48'0 0.0
2019-Apr-14 14:28N 29°19' W 094°48'0 0.0
2019-Apr-14 13:58N 29°19' W 094°48'0 0.0
2019-Apr-14 13:28N 29°19' W 094°48'0 0.0
2019-Apr-14 12:58N 29°19' W 094°48'0 0.0
2019-Apr-14 12:28N 29°19' W 094°48'0 0.0
2019-Apr-14 11:58N 29°19' W 094°48'0 0.0
2019-Apr-14 11:30N 29°19' W 094°48'1 2.7
2019-Apr-14 11:00N 29°19' W 094°47'2 4.0
2019-Apr-14 10:31N 29°21' W 094°45'612.3
2019-Apr-14 10:00N 29°19' W 094°38'5 9.8
2019-Apr-14 09:30N 29°16' W 094°33'  

Dump ship's entire track history